createdAt,value
2023-11-10T00:00:12.756Z,62.37
2023-11-10T00:02:15.462Z,62.80
2023-11-10T00:04:20.571Z,63.15
2023-11-10T00:06:23.390Z,63.79
2023-11-10T00:08:28.534Z,64.01
2023-11-10T00:10:32.387Z,63.84
2023-11-10T00:12:34.222Z,64.47
2023-11-10T00:14:40.450Z,65.34
2023-11-10T00:16:45.111Z,65.90
2023-11-10T00:18:47.996Z,66.07
2023-11-10T00:20:50.824Z,66.68
2023-11-10T00:22:53.682Z,67.29
2023-11-10T00:24:57.726Z,67.41
2023-11-10T00:27:00.381Z,68.00
2023-11-10T00:29:03.227Z,68.67
2023-11-10T00:31:06.068Z,69.15
2023-11-10T00:33:08.901Z,69.59
2023-11-10T00:35:11.848Z,69.92
2023-11-10T00:37:14.543Z,70.47
2023-11-10T00:39:20.997Z,70.97
2023-11-10T00:41:25.014Z,71.37
2023-11-10T00:43:28.158Z,71.87
2023-11-10T00:45:29.941Z,71.83
2023-11-10T00:47:32.631Z,72.04
2023-11-10T00:49:35.671Z,72.78
2023-11-10T00:51:38.442Z,72.76
2023-11-10T00:53:43.107Z,72.86
2023-11-10T00:55:46.064Z,73.10
2023-11-10T00:57:50.040Z,73.36
2023-11-10T00:59:52.701Z,73.64
2023-11-10T01:01:55.341Z,74.05
2023-11-10T01:03:59.502Z,74.05
2023-11-10T01:06:02.236Z,74.14
2023-11-10T01:08:05.378Z,74.49
2023-11-10T01:10:09.528Z,74.29
2023-11-10T01:12:12.270Z,74.70
2023-11-10T01:14:16.461Z,74.88
2023-11-10T01:16:19.505Z,74.66
2023-11-10T01:18:22.256Z,74.87
2023-11-10T01:20:24.968Z,75.03
2023-11-10T01:22:28.274Z,75.36
2023-11-10T01:24:31.061Z,75.28
2023-11-10T01:26:34.715Z,75.62
2023-11-10T01:28:38.731Z,75.49
2023-11-10T01:30:42.963Z,75.60
2023-11-10T01:32:45.004Z,76.01
2023-11-10T01:34:47.769Z,76.43
2023-11-10T01:36:50.425Z,76.21
2023-11-10T01:38:53.176Z,76.41
2023-11-10T01:40:55.723Z,76.30
2023-11-10T01:42:58.377Z,76.17
2023-11-10T01:45:01.003Z,76.46
2023-11-10T01:47:06.623Z,76.18
2023-11-10T01:49:10.910Z,76.68
2023-11-10T01:51:13.726Z,76.51
2023-11-10T01:53:16.718Z,76.68
2023-11-10T01:55:19.936Z,76.51
2023-11-10T01:57:22.646Z,76.59
2023-11-10T01:59:25.295Z,76.45
2023-11-10T02:01:28.131Z,76.09
2023-11-10T02:03:32.535Z,76.41
2023-11-10T02:05:36.286Z,76.32
2023-11-10T02:07:38.974Z,76.13
2023-11-10T02:09:42.086Z,75.98
2023-11-10T02:11:45.173Z,76.19
2023-11-10T02:13:46.927Z,76.38
2023-11-10T02:15:49.545Z,75.57
2023-11-10T02:17:52.963Z,74.76
2023-11-10T02:19:56.975Z,74.95
2023-11-10T02:21:59.625Z,74.22
2023-11-10T02:24:06.496Z,75.05
2023-11-10T02:26:10.544Z,74.49
2023-11-10T02:28:13.165Z,74.36
2023-11-10T02:30:15.370Z,73.34
2023-11-10T02:32:18.109Z,73.74
2023-11-10T02:34:20.721Z,74.52
2023-11-10T02:36:23.744Z,74.73
2023-11-10T02:38:25.474Z,75.22
2023-11-10T02:40:27.944Z,74.96
2023-11-10T02:42:31.967Z,75.04
2023-11-10T02:44:35.076Z,75.21
2023-11-10T02:46:37.805Z,75.59
2023-11-10T02:48:40.346Z,75.69
2023-11-10T02:50:44.961Z,75.62
2023-11-10T02:52:47.578Z,76.24
2023-11-10T02:54:50.203Z,76.14
2023-11-10T02:56:52.856Z,76.72
2023-11-10T02:58:57.162Z,77.04
2023-11-10T03:00:59.881Z,76.78
2023-11-10T03:03:04.169Z,76.96
2023-11-10T03:05:08.858Z,77.31
2023-11-10T03:07:11.754Z,76.66
2023-11-10T03:09:14.710Z,76.76
2023-11-10T03:11:18.585Z,74.59
2023-11-10T03:13:21.338Z,74.32
2023-11-10T03:15:25.356Z,74.70
2023-11-10T03:19:33.621Z,72.73
2023-11-10T03:21:36.294Z,72.88
2023-11-10T03:23:37.960Z,72.98
2023-11-10T03:25:40.487Z,72.00
2023-11-10T03:27:42.243Z,72.05
2023-11-10T03:29:44.900Z,71.93
2023-11-10T03:31:48.916Z,71.80
2023-11-10T03:33:50.699Z,70.93
2023-11-10T03:35:53.520Z,70.95
2023-11-10T03:37:55.317Z,71.37
2023-11-10T03:39:57.954Z,71.23
2023-11-10T03:42:01.753Z,70.09
2023-11-10T03:44:04.722Z,70.38
2023-11-10T03:46:06.517Z,70.64
2023-11-10T03:48:10.507Z,70.29
2023-11-10T03:50:13.327Z,69.59
2023-11-10T03:52:15.989Z,70.08
2023-11-10T03:54:20.006Z,69.85
2023-11-10T03:56:23.039Z,69.10
2023-11-10T03:58:24.784Z,70.07
2023-11-10T04:00:38.792Z,68.79
2023-11-10T04:02:48.206Z,68.22
2023-11-10T04:04:51.281Z,69.12
2023-11-10T04:06:54.169Z,69.12
2023-11-10T04:08:56.083Z,69.54
2023-11-10T04:10:59.208Z,70.19
2023-11-10T04:13:02.041Z,69.90
2023-11-10T04:15:05.147Z,69.22
2023-11-10T04:17:08.411Z,69.44
2023-11-10T04:19:11.277Z,69.80
2023-11-10T04:21:15.400Z,69.00
2023-11-10T04:23:18.782Z,68.40
2023-11-10T04:25:21.423Z,67.85
2023-11-10T04:27:24.277Z,68.39
2023-11-10T04:29:26.944Z,67.90
2023-11-10T04:31:30.151Z,68.57
2023-11-10T04:33:33.004Z,68.47
2023-11-10T04:35:36.843Z,68.72
2023-11-10T04:37:41.500Z,69.35
2023-11-10T04:39:44.175Z,68.98
2023-11-10T04:41:47.887Z,67.68
2023-11-10T04:43:49.609Z,68.58
2023-11-10T04:45:52.478Z,68.84
2023-11-10T04:47:55.583Z,69.14
2023-11-10T04:49:58.246Z,67.83
2023-11-10T04:52:00.897Z,68.50
2023-11-10T04:54:05.228Z,67.79
2023-11-10T04:56:08.225Z,68.60
2023-11-10T04:58:09.915Z,68.85
2023-11-10T05:00:14.581Z,68.24
2023-11-10T05:02:17.422Z,68.95
2023-11-10T05:04:20.135Z,68.47
2023-11-10T05:06:31.220Z,68.51
2023-11-10T05:08:33.958Z,69.37
2023-11-10T05:10:39.484Z,69.21
2023-11-10T05:12:42.413Z,69.57
2023-11-10T05:14:45.107Z,69.06
2023-11-10T05:16:46.791Z,69.52
2023-11-10T05:20:54.447Z,69.80
2023-11-10T05:22:57.156Z,69.74
2023-11-10T05:24:59.783Z,69.89
2023-11-10T05:27:03.814Z,70.21
2023-11-10T05:29:06.425Z,70.05
2023-11-10T05:31:08.077Z,70.42
2023-11-10T05:33:10.713Z,70.99
2023-11-10T05:35:13.576Z,70.82
2023-11-10T05:37:16.335Z,70.97
2023-11-10T05:39:18.962Z,69.88
2023-11-10T05:41:21.666Z,70.33
2023-11-10T05:43:25.810Z,70.49
2023-11-10T05:45:28.439Z,69.41
2023-11-10T05:47:31.583Z,69.94
2023-11-10T05:49:34.838Z,69.30
2023-11-10T05:51:37.526Z,68.80
2023-11-10T05:53:40.230Z,68.10
2023-11-10T05:55:43.973Z,68.27
2023-11-10T05:57:45.867Z,68.10
2023-11-10T05:59:49.848Z,68.45
2023-11-10T06:01:52.711Z,68.20
2023-11-10T06:03:55.752Z,67.24
2023-11-10T06:05:58.593Z,67.44
2023-11-10T06:08:01.253Z,67.72
2023-11-10T06:10:05.351Z,67.12
2023-11-10T06:12:10.860Z,66.67
2023-11-10T06:14:13.549Z,67.68
2023-11-10T06:16:18.215Z,66.94
2023-11-10T06:18:20.909Z,67.00
2023-11-10T06:20:23.608Z,66.02
2023-11-10T06:22:27.166Z,67.01
2023-11-10T06:24:29.998Z,67.32
2023-11-10T06:26:31.725Z,67.55
2023-11-10T06:28:36.076Z,67.46
2023-11-10T06:30:38.787Z,67.26
2023-11-10T06:32:42.005Z,68.04
2023-11-10T06:34:44.688Z,68.04
2023-11-10T06:36:46.885Z,67.64
2023-11-10T06:38:49.774Z,67.82
2023-11-10T06:40:52.449Z,66.94
2023-11-10T06:42:55.263Z,66.80
2023-11-10T06:44:58.080Z,66.71
2023-11-10T06:47:00.873Z,66.98
2023-11-10T06:49:05.044Z,67.15
2023-11-10T06:51:07.722Z,67.68
2023-11-10T06:53:11.915Z,67.64
2023-11-10T06:55:16.343Z,67.02
2023-11-10T06:57:19.043Z,67.13
2023-11-10T06:59:27.161Z,66.87
2023-11-10T07:01:30.302Z,66.63
2023-11-10T07:03:33.079Z,66.66
2023-11-10T07:05:37.797Z,66.18
2023-11-10T07:07:40.945Z,66.26
2023-11-10T07:09:43.665Z,66.39
2023-11-10T07:11:46.318Z,66.50
2023-11-10T07:13:49.192Z,66.13
2023-11-10T07:15:52.070Z,66.08
2023-11-10T07:17:54.871Z,66.24
2023-11-10T07:19:57.473Z,65.85
2023-11-10T07:22:01.577Z,66.54
2023-11-10T07:24:04.731Z,66.46
2023-11-10T07:26:07.384Z,66.53
2023-11-10T07:28:11.120Z,66.52
2023-11-10T07:30:13.949Z,66.26
2023-11-10T07:32:16.753Z,66.17
2023-11-10T07:34:19.599Z,65.97
2023-11-10T07:36:22.337Z,66.43
2023-11-10T07:38:26.726Z,66.33
2023-11-10T07:40:28.369Z,66.39
2023-11-10T07:42:30.901Z,66.38
2023-11-10T07:44:33.536Z,66.42
2023-11-10T07:46:35.317Z,66.04
2023-11-10T07:48:38.813Z,66.08
2023-11-10T07:50:41.841Z,66.54
2023-11-10T07:52:45.455Z,66.48
2023-11-10T07:54:57.932Z,65.59
2023-11-10T07:57:02.140Z,66.23
2023-11-10T07:59:05.224Z,65.89
2023-11-10T08:01:10.166Z,65.56
2023-11-10T08:03:12.858Z,65.77
2023-11-10T08:05:15.625Z,66.46
2023-11-10T08:07:18.564Z,65.57
2023-11-10T08:09:22.329Z,66.51
2023-11-10T08:11:26.315Z,66.79
2023-11-10T08:13:29.269Z,66.39
2023-11-10T08:15:31.913Z,66.68
2023-11-10T08:17:33.692Z,66.64
2023-11-10T08:19:36.395Z,65.42
2023-11-10T08:21:40.967Z,66.17
2023-11-10T08:23:43.960Z,66.01
2023-11-10T08:25:46.782Z,66.57
2023-11-10T08:27:50.865Z,66.09
2023-11-10T08:29:53.498Z,65.30
2023-11-10T08:31:55.270Z,64.42
2023-11-10T08:33:58.225Z,64.98
2023-11-10T08:35:59.958Z,64.90
2023-11-10T08:38:02.466Z,65.63
2023-11-10T08:40:06.858Z,64.81
2023-11-10T08:42:10.210Z,64.16
2023-11-10T08:44:14.772Z,63.75
2023-11-10T08:46:17.889Z,64.41
2023-11-10T08:48:20.675Z,64.53
2023-11-10T08:50:23.314Z,64.19
2023-11-10T08:52:26.927Z,64.76
2023-11-10T08:54:29.661Z,64.83
2023-11-10T08:56:31.566Z,64.63
2023-11-10T08:58:34.313Z,63.84
2023-11-10T09:00:38.659Z,62.74
2023-11-10T09:02:42.626Z,63.19
2023-11-10T09:04:45.545Z,61.27
2023-11-10T09:06:48.394Z,61.67
2023-11-10T09:08:51.642Z,60.14
2023-11-10T09:10:54.264Z,60.54
2023-11-10T09:12:56.959Z,60.69
2023-11-10T09:14:59.617Z,60.37
2023-11-10T09:17:04.697Z,59.99
2023-11-10T09:19:07.474Z,60.47
2023-11-10T09:21:10.417Z,60.25
2023-11-10T09:23:13.081Z,59.62
2023-11-10T09:25:17.889Z,60.08
2023-11-10T09:27:20.767Z,59.13
2023-11-10T09:29:23.610Z,59.35
2023-11-10T09:31:26.022Z,60.41
2023-11-10T09:33:30.086Z,59.46
2023-11-10T09:35:34.149Z,59.11
2023-11-10T09:37:36.324Z,59.18
2023-11-10T09:39:39.032Z,59.80
2023-11-10T09:41:46.542Z,58.82
2023-11-10T09:43:50.773Z,58.68
2023-11-10T09:45:56.001Z,58.80
2023-11-10T09:47:59.952Z,59.50
2023-11-10T09:50:07.692Z,59.58
2023-11-10T09:52:12.201Z,59.94
2023-11-10T09:54:15.687Z,60.89
2023-11-10T09:56:21.329Z,60.59
2023-11-10T09:58:23.987Z,60.99
2023-11-10T10:00:27.404Z,61.59
2023-11-10T10:02:30.160Z,61.91
2023-11-10T10:04:33.222Z,61.80
2023-11-10T10:06:38.018Z,61.95
2023-11-10T10:08:44.069Z,62.49
2023-11-10T10:10:47.326Z,63.31
2023-11-10T10:12:50.239Z,63.60
2023-11-10T10:14:56.338Z,64.12
2023-11-10T10:16:59.443Z,63.91
2023-11-10T10:19:03.972Z,64.96
2023-11-10T10:21:07.563Z,64.63
2023-11-10T10:23:11.907Z,64.68
2023-11-10T10:25:14.506Z,66.23
2023-11-10T10:27:17.109Z,67.21
2023-11-10T10:29:19.865Z,67.96
2023-11-10T10:31:22.571Z,67.44
2023-11-10T10:33:24.380Z,67.15
2023-11-10T10:35:27.131Z,65.08
2023-11-10T10:37:30.591Z,66.51
2023-11-10T10:39:35.943Z,66.71
2023-11-10T10:41:40.820Z,67.21
2023-11-10T10:43:55.167Z,67.50
2023-11-10T10:46:06.755Z,66.70
2023-11-10T10:48:10.292Z,67.78
2023-11-10T10:50:13.708Z,68.24
2023-11-10T10:52:18.247Z,67.75
2023-11-10T10:54:22.863Z,68.18
2023-11-10T10:56:38.756Z,69.41
2023-11-10T10:58:47.156Z,68.21
2023-11-10T11:00:49.056Z,68.81
2023-11-10T11:02:57.498Z,68.93
2023-11-10T11:05:06.544Z,68.68
2023-11-10T11:07:24.525Z,69.14
2023-11-10T11:09:50.170Z,69.58
2023-11-10T11:12:38.407Z,69.47
2023-11-10T11:14:47.862Z,70.33
2023-11-10T11:17:04.553Z,69.99
2023-11-10T11:19:20.830Z,70.59
2023-11-10T11:21:25.368Z,69.75
2023-11-10T11:23:29.553Z,69.60
2023-11-10T11:25:32.468Z,69.47
2023-11-10T11:27:38.046Z,69.55
2023-11-10T11:29:41.976Z,69.54
2023-11-10T11:31:48.522Z,67.18
2023-11-10T11:33:53.362Z,67.03
2023-11-10T11:36:01.649Z,68.04
2023-11-10T11:38:04.394Z,66.91
2023-11-10T11:40:10.636Z,66.52
2023-11-10T11:42:13.876Z,66.57
2023-11-10T11:44:27.552Z,67.08
2023-11-10T11:46:35.425Z,66.77
2023-11-10T11:48:38.721Z,66.83
2023-11-10T11:50:41.617Z,66.59
2023-11-10T11:52:46.477Z,65.78
2023-11-10T11:54:49.252Z,66.50
2023-11-10T11:56:53.689Z,67.15
2023-11-10T11:58:56.773Z,67.57
2023-11-10T12:01:02.117Z,67.49
2023-11-10T12:03:05.788Z,67.11
2023-11-10T12:05:14.455Z,65.84
2023-11-10T12:07:22.123Z,66.60
2023-11-10T12:09:26.781Z,66.24
2023-11-10T12:11:30.097Z,66.88
2023-11-10T12:13:34.898Z,65.99
2023-11-10T12:15:38.790Z,66.77
2023-11-10T12:17:46.503Z,66.78
2023-11-10T12:19:49.460Z,66.10
2023-11-10T12:21:52.383Z,64.00
2023-11-10T12:24:04.500Z,63.81
2023-11-10T12:26:07.210Z,63.45
2023-11-10T12:28:13.255Z,63.15
2023-11-10T12:30:16.183Z,63.20
2023-11-10T12:32:18.926Z,62.22
2023-11-10T12:34:24.929Z,61.02
2023-11-10T12:36:31.244Z,60.42
2023-11-10T12:38:35.119Z,60.32
2023-11-10T12:40:38.719Z,59.84
2023-11-10T12:42:40.973Z,59.38
2023-11-10T12:44:43.675Z,59.10
2023-11-10T12:46:54.298Z,58.90
2023-11-10T12:48:58.083Z,58.64
2023-11-10T12:51:04.307Z,59.49
2023-11-10T12:53:06.978Z,59.40
2023-11-10T12:55:11.021Z,58.20
2023-11-10T12:57:13.777Z,58.83
2023-11-10T12:59:16.595Z,58.54
2023-11-10T13:01:20.873Z,58.22
2023-11-10T13:03:23.623Z,56.72
2023-11-10T13:05:44.765Z,57.22
2023-11-10T13:07:48.844Z,58.25
2023-11-10T13:09:52.634Z,57.22
2023-11-10T13:11:55.342Z,56.95
2023-11-10T13:13:58.003Z,56.79
2023-11-10T13:16:00.741Z,56.12
2023-11-10T13:18:03.579Z,56.66
2023-11-10T13:20:09.749Z,56.57
2023-11-10T13:22:18.435Z,56.53
2023-11-10T13:24:22.409Z,56.76
2023-11-10T13:26:26.491Z,56.74
2023-11-10T13:28:38.935Z,55.59
2023-11-10T13:30:46.867Z,54.93
2023-11-10T13:32:49.680Z,55.37
2023-11-10T13:34:53.568Z,54.59
2023-11-10T13:36:58.224Z,54.66
2023-11-10T13:39:01.027Z,53.63
2023-11-10T13:41:06.117Z,54.20
2023-11-10T13:43:09.375Z,54.30
2023-11-10T13:45:13.081Z,54.02
2023-11-10T13:47:16.088Z,52.82
2023-11-10T13:49:18.782Z,52.84
2023-11-10T13:51:21.449Z,52.86
2023-11-10T13:53:24.836Z,52.57
2023-11-10T13:55:27.910Z,52.77
2023-11-10T13:57:34.328Z,53.25
2023-11-10T13:59:40.759Z,53.70
2023-11-10T14:01:44.254Z,53.30
2023-11-10T14:03:47.029Z,53.05
2023-11-10T14:05:49.891Z,53.38
2023-11-10T14:07:52.568Z,54.07
2023-11-10T14:09:54.748Z,53.89
2023-11-10T14:11:57.508Z,54.32
2023-11-10T14:14:01.447Z,54.11
2023-11-10T14:16:06.333Z,54.68
2023-11-10T14:18:11.947Z,54.23
2023-11-10T14:20:14.646Z,54.31
2023-11-10T14:22:17.364Z,55.00
2023-11-10T14:24:20.834Z,53.74
2023-11-10T14:26:25.842Z,52.52
2023-11-10T14:28:28.563Z,52.44
2023-11-10T14:30:32.593Z,53.01
2023-11-10T14:32:36.135Z,53.35
2023-11-10T14:34:40.884Z,53.17
2023-11-10T14:36:43.704Z,53.21
2023-11-10T14:40:53.287Z,53.46
2023-11-10T14:42:56.034Z,53.87
2023-11-10T14:45:01.484Z,53.79
2023-11-10T14:47:12.552Z,53.81
2023-11-10T14:49:15.769Z,54.18
2023-11-10T14:51:24.038Z,54.77
2023-11-10T14:53:28.407Z,54.82
2023-11-10T14:55:30.140Z,54.47
2023-11-10T14:57:32.669Z,55.06
2023-11-10T14:59:34.458Z,55.40
2023-11-10T15:01:40.389Z,55.57
2023-11-10T15:03:48.820Z,56.01
2023-11-10T15:05:53.813Z,55.67
2023-11-10T15:07:56.524Z,56.26
2023-11-10T15:09:59.209Z,56.71
2023-11-10T15:12:02.055Z,56.25
2023-11-10T15:14:06.156Z,54.85
2023-11-10T15:16:11.088Z,55.83
2023-11-10T15:18:15.329Z,56.30
2023-11-10T15:20:20.080Z,56.16
2023-11-10T15:22:22.734Z,55.20
2023-11-10T15:24:25.479Z,55.33
2023-11-10T15:26:28.124Z,54.56
2023-11-10T15:28:30.802Z,55.26
2023-11-10T15:30:34.240Z,55.48
2023-11-10T15:32:37.604Z,55.45
2023-11-10T15:34:51.447Z,55.29
2023-11-10T15:36:59.994Z,54.37
2023-11-10T15:39:10.156Z,54.88
2023-11-10T15:41:18.797Z,54.15
2023-11-10T15:43:22.197Z,54.54
2023-11-10T15:45:25.469Z,54.17
2023-11-10T15:47:28.160Z,53.93
2023-11-10T15:49:30.914Z,54.17
2023-11-10T15:51:41.440Z,54.30
2023-11-10T15:53:53.332Z,55.00
2023-11-10T15:55:55.961Z,55.23
2023-11-10T15:57:58.632Z,55.90
2023-11-10T16:00:00.406Z,56.25
2023-11-10T16:02:03.816Z,56.29
2023-11-10T16:04:08.491Z,57.01
2023-11-10T16:06:11.239Z,56.79
2023-11-10T16:08:13.903Z,57.07
2023-11-10T16:10:18.063Z,57.20
2023-11-10T16:12:20.914Z,57.23
2023-11-10T16:14:26.137Z,56.99
2023-11-10T16:16:29.181Z,57.27
2023-11-10T16:18:34.127Z,57.27
2023-11-10T16:20:36.836Z,57.62
2023-11-10T16:22:41.993Z,57.64
2023-11-10T16:24:44.700Z,57.37
2023-11-10T16:26:50.877Z,57.66
2023-11-10T16:28:53.958Z,57.60
2023-11-10T16:30:56.678Z,57.89
2023-11-10T16:33:00.811Z,58.41
2023-11-10T16:35:03.709Z,58.28
2023-11-10T16:37:06.421Z,58.70
2023-11-10T16:39:09.588Z,56.39
2023-11-10T16:41:15.290Z,55.85
2023-11-10T16:43:19.942Z,56.40
2023-11-10T16:45:22.690Z,56.74
2023-11-10T16:47:26.437Z,56.88
2023-11-10T16:49:30.079Z,57.15
2023-11-10T16:51:36.485Z,57.58
2023-11-10T16:53:40.366Z,57.60
2023-11-10T16:55:43.072Z,57.68
2023-11-10T16:57:45.829Z,57.89
2023-11-10T16:59:49.839Z,57.63
2023-11-10T17:01:52.762Z,57.36
2023-11-10T17:03:55.531Z,55.88
2023-11-10T17:05:59.114Z,56.67
2023-11-10T17:08:03.342Z,56.46
2023-11-10T17:10:07.115Z,55.90
2023-11-10T17:12:10.183Z,56.17
2023-11-10T17:14:11.847Z,56.45
2023-11-10T17:16:16.823Z,57.29
2023-11-10T17:18:19.528Z,57.14
2023-11-10T17:20:22.872Z,57.52
2023-11-10T17:22:25.562Z,58.15
2023-11-10T17:24:28.780Z,58.31
2023-11-10T17:26:31.419Z,58.29
2023-11-10T17:28:35.694Z,58.62
2023-11-10T17:30:38.438Z,58.06
2023-11-10T17:32:46.291Z,58.36
2023-11-10T17:34:50.344Z,58.32
2023-11-10T17:36:53.087Z,58.53
2023-11-10T17:38:56.347Z,58.75
2023-11-10T17:41:00.141Z,58.86
2023-11-10T17:43:03.620Z,57.23
2023-11-10T17:45:07.683Z,57.58
2023-11-10T17:47:10.702Z,57.21
2023-11-10T17:49:13.853Z,57.53
2023-11-10T17:51:18.136Z,57.30
2023-11-10T17:53:20.780Z,57.15
2023-11-10T17:55:23.615Z,57.36
2023-11-10T17:57:27.220Z,57.30
2023-11-10T17:59:29.873Z,57.55
2023-11-10T18:01:32.751Z,57.73
2023-11-10T18:03:35.532Z,57.80
2023-11-10T18:05:40.034Z,57.95
2023-11-10T18:07:42.675Z,57.99
2023-11-10T18:09:45.357Z,58.66
2023-11-10T18:11:48.081Z,58.76
2023-11-10T18:13:53.695Z,59.26
2023-11-10T18:15:56.360Z,59.57
2023-11-10T18:17:58.330Z,59.82
2023-11-10T18:20:01.115Z,59.78
2023-11-10T18:22:05.680Z,60.29
2023-11-10T18:24:10.670Z,60.16
2023-11-10T18:26:12.391Z,60.25
2023-11-10T18:28:14.975Z,60.40
2023-11-10T18:30:17.697Z,60.40
2023-11-10T18:32:21.572Z,60.25
2023-11-10T18:34:24.891Z,60.76
2023-11-10T18:36:28.592Z,60.78
2023-11-10T18:38:35.726Z,60.98
2023-11-10T18:40:39.231Z,60.41
2023-11-10T18:42:45.455Z,60.78
2023-11-10T18:44:47.363Z,60.95
2023-11-10T18:46:50.073Z,60.82
2023-11-10T18:48:52.804Z,60.88
2023-11-10T18:50:54.548Z,61.07
2023-11-10T18:52:57.042Z,60.73
2023-11-10T18:55:02.565Z,60.90
2023-11-10T18:57:06.997Z,60.67
2023-11-10T18:59:09.804Z,60.53
2023-11-10T19:01:13.125Z,60.52
2023-11-10T19:03:15.925Z,60.40
2023-11-10T19:05:19.637Z,60.67
2023-11-10T19:07:23.919Z,60.40
2023-11-10T19:09:26.704Z,59.73
2023-11-10T19:11:30.750Z,59.05
2023-11-10T19:13:33.531Z,58.89
2023-11-10T19:15:36.412Z,59.07
2023-11-10T19:17:39.232Z,58.46
2023-11-10T19:19:43.578Z,56.28
2023-11-10T19:21:46.520Z,57.08
2023-11-10T19:23:49.194Z,57.23
2023-11-10T19:25:51.865Z,57.55
2023-11-10T19:27:56.065Z,56.73
2023-11-10T19:29:58.756Z,57.12
2023-11-10T19:32:01.511Z,56.38
2023-11-10T19:34:04.471Z,56.27
2023-11-10T19:36:07.626Z,56.36
2023-11-10T19:38:10.359Z,56.64
2023-11-10T19:40:14.036Z,56.87
2023-11-10T19:42:16.680Z,56.98
2023-11-10T19:44:20.734Z,56.83
2023-11-10T19:46:23.558Z,56.79
2023-11-10T19:48:26.289Z,56.29
2023-11-10T19:50:29.648Z,56.43
2023-11-10T19:52:32.371Z,56.15
2023-11-10T19:56:41.473Z,55.96
2023-11-10T20:02:57.566Z,56.02
2023-11-10T20:05:00.364Z,55.88
2023-11-10T20:07:02.069Z,56.35
2023-11-10T20:09:04.814Z,56.05
2023-11-10T20:11:07.481Z,56.24
2023-11-10T20:13:10.149Z,56.48
2023-11-10T20:15:14.816Z,56.45
2023-11-10T20:17:19.562Z,56.76
2023-11-10T20:19:22.212Z,55.82
2023-11-10T20:21:24.948Z,55.58
2023-11-10T20:23:27.628Z,55.63
2023-11-10T20:25:30.379Z,55.64
2023-11-10T20:27:33.050Z,56.03
2023-11-10T20:29:36.136Z,54.80
2023-11-10T20:31:38.865Z,54.33
2023-11-10T20:33:41.998Z,54.86
2023-11-10T20:35:44.956Z,55.21
2023-11-10T20:37:47.603Z,54.72
2023-11-10T20:39:50.296Z,55.03
2023-11-10T20:41:53.169Z,55.20
2023-11-10T20:43:55.811Z,55.16
2023-11-10T20:45:58.437Z,55.08
2023-11-10T20:48:01.237Z,54.86
2023-11-10T20:50:05.785Z,55.31
2023-11-10T20:52:08.412Z,54.96
2023-11-10T20:54:11.137Z,55.64
2023-11-10T20:56:13.884Z,55.42
2023-11-10T20:58:16.501Z,55.33
2023-11-10T21:00:24.698Z,55.49
2023-11-10T21:02:27.742Z,55.50
2023-11-10T21:04:30.513Z,55.39
2023-11-10T21:06:34.656Z,55.37
2023-11-10T21:08:36.706Z,55.45
2023-11-10T21:10:39.614Z,56.03
2023-11-10T21:12:43.045Z,55.92
2023-11-10T21:14:45.823Z,55.54
2023-11-10T21:16:48.479Z,55.17
2023-11-10T21:18:51.211Z,55.48
2023-11-10T21:20:53.907Z,56.04
2023-11-10T21:22:57.941Z,56.08
2023-11-10T21:25:00.589Z,56.26
2023-11-10T21:27:03.300Z,55.23
2023-11-10T21:29:06.151Z,55.54
2023-11-10T21:31:09.535Z,55.97
2023-11-10T21:33:11.417Z,56.00
2023-11-10T21:35:14.216Z,56.39
2023-11-10T21:37:17.796Z,56.33
2023-11-10T21:39:25.034Z,55.92
2023-11-10T21:41:29.518Z,55.35
2023-11-10T21:43:32.213Z,55.52
2023-11-10T21:45:40.072Z,55.28
2023-11-10T21:47:42.973Z,56.10
2023-11-10T21:49:48.283Z,55.87
2023-11-10T21:51:51.132Z,56.06
2023-11-10T21:53:53.825Z,56.38
2023-11-10T21:55:57.839Z,56.16
2023-11-10T21:58:00.538Z,56.58
2023-11-10T22:00:03.441Z,56.34
2023-11-10T22:02:06.199Z,56.85
2023-11-10T22:04:08.905Z,56.43
2023-11-10T22:06:12.581Z,56.76
2023-11-10T22:08:15.438Z,57.04
2023-11-10T22:10:18.432Z,56.76
2023-11-10T22:12:25.091Z,56.86
2023-11-10T22:14:28.389Z,56.61
2023-11-10T22:16:31.807Z,56.28
2023-11-10T22:18:34.490Z,56.43
2023-11-10T22:20:36.297Z,56.30
2023-11-10T22:22:40.084Z,56.67
2023-11-10T22:24:42.703Z,56.97
2023-11-10T22:26:46.508Z,57.24
2023-11-10T22:28:50.577Z,56.96
2023-11-10T22:30:52.408Z,57.05
2023-11-10T22:32:55.175Z,58.22
2023-11-10T22:34:58.196Z,57.91
2023-11-10T22:37:04.445Z,59.15
2023-11-10T22:39:10.168Z,59.73
2023-11-10T22:41:13.077Z,59.36
2023-11-10T22:43:15.848Z,60.28
2023-11-10T22:45:20.556Z,60.18
2023-11-10T22:47:22.379Z,61.16
2023-11-10T22:49:24.842Z,62.23
2023-11-10T22:51:27.530Z,62.14
2023-11-10T22:53:30.466Z,61.81
2023-11-10T22:55:33.202Z,62.29
2023-11-10T22:57:36.880Z,62.42
2023-11-10T22:59:39.676Z,62.39
2023-11-10T23:01:45.568Z,62.36
2023-11-10T23:03:47.405Z,61.82
2023-11-10T23:05:50.164Z,61.79
2023-11-10T23:07:53.035Z,61.88
2023-11-10T23:09:55.708Z,62.55
2023-11-10T23:11:58.446Z,63.17
2023-11-10T23:14:01.475Z,64.05
2023-11-10T23:16:04.341Z,64.48
2023-11-10T23:18:10.513Z,64.98
2023-11-10T23:20:25.915Z,66.08
2023-11-10T23:22:33.127Z,67.24
2023-11-10T23:24:35.944Z,67.47
2023-11-10T23:26:38.698Z,67.31
2023-11-10T23:28:41.330Z,68.44
2023-11-10T23:30:44.094Z,67.37
2023-11-10T23:32:47.524Z,68.46
2023-11-10T23:34:51.797Z,68.37
2023-11-10T23:36:55.344Z,69.33
2023-11-10T23:38:57.208Z,68.82
2023-11-10T23:41:01.509Z,69.32
2023-11-10T23:43:04.263Z,69.08
2023-11-10T23:45:09.477Z,69.40
2023-11-10T23:47:12.284Z,69.38
2023-11-10T23:49:15.006Z,69.66
2023-11-10T23:51:19.101Z,68.71
2023-11-10T23:53:21.781Z,67.61
2023-11-10T23:55:23.563Z,68.62
2023-11-10T23:57:26.254Z,69.01
2023-11-10T23:59:29.077Z,69.54
